Time;durP1;ratioP1;P1;durP2;ratioP2;P2;SDS_P1;SDS_P2;PMS_P1;PMS_P2;Temp;Humidity;BMP_temperature;BMP_pressure;BME280_temperature;BME280_humidity;BME280_pressure;Samples;Min_cycle;Max_cycle;Signal;HPM_P1;HPM_P2
2022/05/20 00:01:26;;;;;;;1.50;0.90;;;10.90;97.20;;;;;;4172721;28;20067;-65
2022/05/20 00:03:27;;;;;;;4.33;1.40;;;10.90;97.10;;;;;;4186144;28;20111;-65
2022/05/20 00:05:28;;;;;;;2.10;1.10;;;10.90;97.40;;;;;;4185423;28;20758;-64
2022/05/20 00:07:30;;;;;;;2.23;1.40;;;10.90;97.50;;;;;;4173757;28;20087;-64
2022/05/20 00:09:32;;;;;;;2.63;1.47;;;10.80;97.60;;;;;;4172634;28;20029;-66
2022/05/20 00:11:33;;;;;;;1.80;1.13;;;10.80;97.80;;;;;;4188500;28;20098;-64
2022/05/20 00:13:34;;;;;;;2.87;1.20;;;10.80;97.80;;;;;;4186957;28;20044;-64
2022/05/20 00:15:36;;;;;;;4.97;1.40;;;10.70;98.00;;;;;;4188300;28;20082;-65
2022/05/20 00:17:37;;;;;;;3.90;1.10;;;10.70;98.10;;;;;;4189501;28;20021;-64
2022/05/20 00:19:39;;;;;;;1.60;0.80;;;10.70;98.10;;;;;;4189561;28;20036;-64
2022/05/20 00:21:40;;;;;;;2.30;1.17;;;10.70;98.30;;;;;;4189464;28;20016;-63
2022/05/20 00:23:41;;;;;;;1.07;0.83;;;10.70;98.30;;;;;;4176584;28;20021;-63
2022/05/20 00:25:45;;;;;;;1.60;1.17;;;10.70;98.60;;;;;;4173630;28;20048;-63
2022/05/20 00:27:46;;;;;;;3.17;1.10;;;10.60;98.60;;;;;;4174343;28;20025;-64
2022/05/20 00:29:48;;;;;;;7.63;1.70;;;10.60;98.80;;;;;;4190157;28;20032;-63
2022/05/20 00:31:49;;;;;;;3.97;1.20;;;10.60;98.90;;;;;;4172362;28;20461;-62
2022/05/20 00:33:51;;;;;;;2.37;1.30;;;10.50;99.00;;;;;;4172671;28;20044;-63
2022/05/20 00:35:52;;;;;;;5.23;1.40;;;10.60;99.00;;;;;;4172997;28;20103;-63
2022/05/20 00:37:53;;;;;;;2.43;1.27;;;10.50;99.10;;;;;;4175051;28;20033;-63
2022/05/20 00:39:54;;;;;;;2.10;1.00;;;10.50;99.20;;;;;;4155859;28;20030;-62
2022/05/20 00:41:56;;;;;;;2.33;1.00;;;10.50;99.30;;;;;;4157060;28;20037;-63
2022/05/20 00:43:58;;;;;;;1.83;1.00;;;10.50;99.30;;;;;;4181890;28;20052;-63
2022/05/20 00:46:03;;;;;;;2.73;1.10;;;10.50;99.20;;;;;;4189883;28;20415;-64
2022/05/20 00:48:04;;;;;;;4.10;1.50;;;10.60;99.30;;;;;;4188522;28;20020;-64
2022/05/20 00:50:11;;;;;;;2.80;0.80;;;10.50;99.30;;;;;;4186995;28;20508;-64
2022/05/20 00:52:15;;;;;;;1.40;1.10;;;10.50;99.40;;;;;;4186468;28;20133;-63
2022/05/20 00:54:21;;;;;;;1.60;1.00;;;10.50;99.30;;;;;;4173156;28;20032;-64
2022/05/20 00:56:28;;;;;;;2.07;1.33;;;10.60;99.50;;;;;;4172361;28;20469;-63
2022/05/20 00:58:29;;;;;;;3.93;1.27;;;10.60;99.40;;;;;;4173340;28;20398;-64
2022/05/20 01:00:38;;;;;;;1.70;1.03;;;10.50;99.50;;;;;;4188160;28;20040;-63
2022/05/20 01:02:40;;;;;;;5.60;1.33;;;10.50;99.70;;;;;;4156585;28;20846;-64
2022/05/20 01:04:43;;;;;;;4.80;1.47;;;10.40;99.70;;;;;;4189463;28;20086;-63
2022/05/20 01:06:45;;;;;;;2.13;1.20;;;10.40;99.80;;;;;;4180616;28;20482;-63
2022/05/20 01:08:46;;;;;;;2.57;0.73;;;10.40;99.90;;;;;;4172372;28;20041;-64
2022/05/20 01:10:47;;;;;;;2.30;1.23;;;10.30;99.90;;;;;;4173946;28;20037;-64
2022/05/20 01:12:53;;;;;;;3.23;0.93;;;10.40;99.90;;;;;;4173652;28;20053;-64
2022/05/20 01:14:54;;;;;;;1.27;1.10;;;10.30;99.90;;;;;;4177654;28;20036;-63
2022/05/20 01:16:56;;;;;;;2.67;1.40;;;10.40;99.90;;;;;;4187753;28;20024;-63
2022/05/20 01:18:57;;;;;;;3.13;1.37;;;10.30;99.90;;;;;;4188181;28;20110;-64
2022/05/20 01:20:59;;;;;;;3.70;1.87;;;10.30;99.90;;;;;;4189132;28;20087;-63
2022/05/20 01:23:05;;;;;;;2.50;0.90;;;10.30;99.90;;;;;;4186408;28;20071;-64
2022/05/20 01:25:09;;;;;;;7.50;0.90;;;10.30;99.90;;;;;;4185222;28;20029;-65
2022/05/20 01:27:10;;;;;;;2.20;0.77;;;10.30;99.90;;;;;;4188286;28;20040;-64
2022/05/20 01:29:12;;;;;;;2.20;1.20;;;10.30;99.90;;;;;;4185789;28;21492;-64
2022/05/20 01:31:15;;;;;;;4.23;1.23;;;10.30;99.90;;;;;;4172593;28;20110;-64
2022/05/20 01:33:26;;;;;;;2.07;1.10;;;10.30;99.90;;;;;;4176066;28;20443;-64
2022/05/20 01:35:36;;;;;;;1.97;0.90;;;10.30;99.90;;;;;;4182750;28;20098;-64
2022/05/20 01:37:37;;;;;;;2.57;0.90;;;10.30;99.90;;;;;;4172953;28;20032;-64
2022/05/20 01:39:38;;;;;;;4.17;0.80;;;10.30;99.90;;;;;;4172246;28;20362;-66
2022/05/20 01:41:52;;;;;;;6.87;1.10;;;10.20;99.90;;;;;;4172484;28;20041;-64
2022/05/20 01:44:24;;;;;;;2.53;0.80;;;10.20;99.90;;;;;;4179391;28;20488;-63
2022/05/20 01:46:33;;;;;;;1.40;1.03;;;10.20;99.90;;;;;;4178221;28;20900;-64
2022/05/20 01:49:13;;;;;;;2.10;0.70;;;10.20;99.90;;;;;;4178942;28;20030;-63
2022/05/20 01:51:17;;;;;;;3.23;0.70;;;10.20;99.90;;;;;;4150839;28;20099;-63
2022/05/20 01:54:01;;;;;;;3.67;0.97;;;10.10;99.90;;;;;;4173850;28;20037;-64
2022/05/20 01:56:11;;;;;;;2.23;0.77;;;10.10;99.90;;;;;;4166157;28;20056;-64
2022/05/20 01:58:27;;;;;;;1.45;0.85;;;10.10;99.90;;;;;;4188022;28;20017;-64
2022/05/20 02:00:31;;;;;;;2.30;0.90;;;10.20;99.90;;;;;;4189354;28;20562;-63
2022/05/20 02:02:40;;;;;;;1.83;1.20;;;10.20;99.90;;;;;;4188411;28;20024;-65
2022/05/20 02:04:52;;;;;;;1.00;0.80;;;10.20;99.90;;;;;;4191943;28;20044;-64
2022/05/20 02:06:58;;;;;;;0.90;0.83;;;10.20;99.90;;;;;;4174602;28;20083;-63
2022/05/20 02:09:04;;;;;;;1.97;0.80;;;10.20;99.90;;;;;;4177049;28;20032;-63
2022/05/20 02:11:27;;;;;;;2.73;0.93;;;10.20;99.90;;;;;;4173816;28;20447;-64
2022/05/20 02:13:32;;;;;;;1.37;0.60;;;10.20;99.90;;;;;;4177909;28;20037;-64
2022/05/20 02:15:54;;;;;;;1.90;1.23;;;10.10;99.90;;;;;;4177587;28;20091;-65
2022/05/20 02:18:00;;;;;;;2.87;1.30;;;10.10;99.90;;;;;;4192398;28;20037;-64
2022/05/20 02:20:34;;;;;;;3.77;2.67;;;10.00;99.90;;;;;;4187178;28;20037;-64
2022/05/20 02:22:40;;;;;;;3.37;1.20;;;10.00;99.90;;;;;;4182621;28;20105;-65
2022/05/20 02:24:43;;;;;;;1.47;0.73;;;10.00;99.90;;;;;;4190145;28;20045;-64
2022/05/20 02:26:51;;;;;;;0.60;0.40;;;10.00;99.90;;;;;;4191989;28;20024;-64
2022/05/20 02:28:59;;;;;;;1.33;0.90;;;10.00;99.90;;;;;;4189452;28;20037;-63
2022/05/20 02:31:02;;;;;;;2.43;0.87;;;10.00;99.90;;;;;;4159187;28;20556;-64
2022/05/20 02:33:03;;;;;;;1.80;1.30;;;10.00;99.90;;;;;;4164986;28;20048;-64
2022/05/20 02:35:05;;;;;;;2.67;0.60;;;9.90;99.90;;;;;;4182019;28;20036;-64
2022/05/20 02:37:29;;;;;;;7.90;3.83;;;10.00;99.90;;;;;;4189899;28;20094;-64
2022/05/20 02:39:30;;;;;;;3.70;1.17;;;10.00;99.90;;;;;;4176252;28;20580;-63
2022/05/20 02:41:31;;;;;;;2.80;0.83;;;10.00;99.90;;;;;;4156541;28;20018;-64
2022/05/20 02:43:32;;;;;;;3.17;0.87;;;10.00;99.90;;;;;;4159092;28;20091;-64
2022/05/20 02:45:34;;;;;;;5.13;1.00;;;10.00;99.90;;;;;;4171172;28;20123;-65
2022/05/20 02:47:36;;;;;;;1.60;0.97;;;10.00;99.90;;;;;;4176020;28;20021;-64
2022/05/20 02:49:38;;;;;;;1.07;0.80;;;10.00;99.90;;;;;;4173248;28;20037;-66
2022/05/20 02:51:39;;;;;;;1.50;0.90;;;9.90;99.90;;;;;;4191646;28;20488;-65
2022/05/20 02:53:40;;;;;;;2.90;1.03;;;10.00;99.90;;;;;;4189324;28;20530;-65
2022/05/20 02:55:41;;;;;;;2.80;1.00;;;10.00;99.90;;;;;;4188555;28;21815;-66
2022/05/20 02:57:44;;;;;;;3.53;0.73;;;10.10;99.90;;;;;;4174422;28;20639;-64
2022/05/20 03:04:25;;;;;;;2.27;0.93;;;10.60;99.90;;;;;;4191010;28;20040;-64
2022/05/20 03:06:26;;;;;;;2.30;0.83;;;10.80;99.80;;;;;;4188065;28;20081;-63
2022/05/20 03:08:27;;;;;;;2.40;0.80;;;10.90;99.60;;;;;;4190936;28;20105;-63
2022/05/20 03:10:28;;;;;;;3.00;1.23;;;11.00;99.30;;;;;;4188355;28;20438;-63
2022/05/20 03:12:29;;;;;;;5.40;1.17;;;11.30;99.20;;;;;;4189230;28;20098;-65
2022/05/20 03:14:32;;;;;;;1.73;1.20;;;11.30;98.70;;;;;;4190854;28;20044;-65
2022/05/20 03:16:33;;;;;;;4.07;1.00;;;11.40;98.60;;;;;;4172699;28;20029;-65
2022/05/20 03:18:34;;;;;;;3.30;0.80;;;11.60;98.50;;;;;;4175693;28;20032;-64
2022/05/20 03:20:37;;;;;;;3.47;1.13;;;11.80;98.20;;;;;;4173179;28;20796;-64
2022/05/20 03:22:38;;;;;;;2.50;0.87;;;12.00;97.90;;;;;;4175060;28;20496;-65
2022/05/20 03:24:41;;;;;;;3.43;0.80;;;12.30;97.70;;;;;;4173199;28;20550;-64
2022/05/20 03:26:43;;;;;;;5.17;0.97;;;12.70;97.30;;;;;;4174412;28;20029;-63
2022/05/20 03:28:45;;;;;;;2.57;1.10;;;13.00;96.70;;;;;;4187747;28;20070;-64
2022/05/20 03:30:46;;;;;;;4.57;1.13;;;13.40;96.20;;;;;;4190592;28;20079;-66
2022/05/20 03:32:48;;;;;;;2.60;1.00;;;13.70;95.60;;;;;;4189820;28;20259;-63
2022/05/20 03:34:49;;;;;;;1.80;0.93;;;14.00;95.20;;;;;;4188859;28;20025;-63
2022/05/20 03:36:50;;;;;;;3.43;1.20;;;14.40;94.70;;;;;;4173086;28;20025;-64
2022/05/20 03:38:51;;;;;;;5.13;1.00;;;14.70;93.90;;;;;;4190759;28;20036;-63
2022/05/20 03:40:53;;;;;;;2.13;1.00;;;14.90;93.40;;;;;;4180198;28;20029;-64
2022/05/20 03:42:54;;;;;;;0.60;0.53;;;15.10;93.00;;;;;;4173608;28;20098;-63
2022/05/20 03:44:55;;;;;;;4.47;0.97;;;15.40;92.50;;;;;;4175761;28;20137;-63
2022/05/20 03:46:57;;;;;;;4.70;1.00;;;15.60;91.80;;;;;;4175152;28;20041;-67
2022/05/20 03:48:59;;;;;;;3.23;0.90;;;15.70;91.40;;;;;;4173875;28;20029;-64
2022/05/20 03:51:13;;;;;;;2.20;0.90;;;16.00;91.20;;;;;;4172519;28;20436;-65
2022/05/20 03:53:15;;;;;;;7.20;3.17;;;16.60;90.50;;;;;;4173864;28;20025;-66
2022/05/20 03:55:17;;;;;;;3.70;1.73;;;17.10;89.70;;;;;;4172163;28;20711;-65
2022/05/20 03:57:18;;;;;;;2.80;0.90;;;17.30;88.40;;;;;;4189120;28;20029;-68
2022/05/20 03:59:19;;;;;;;4.95;1.10;;;17.30;87.10;;;;;;4173102;28;20086;-66
2022/05/20 04:03:45;;;;;;;7.78;1.30;;;17.80;86.50;;;;;;4188902;28;20032;-63
2022/05/20 04:05:46;;;;;;;1.80;1.00;;;18.00;84.00;;;;;;4187796;28;20066;-65
2022/05/20 04:07:47;;;;;;;4.47;1.48;;;17.90;83.70;;;;;;4172687;28;20416;-66
2022/05/20 04:09:48;;;;;;;4.32;1.23;;;18.00;83.50;;;;;;4173658;28;20090;-65
2022/05/20 04:11:53;;;;;;;1.95;0.90;;;18.10;82.30;;;;;;4171941;28;20044;-64
2022/05/20 04:13:55;;;;;;;5.13;1.08;;;18.20;81.50;;;;;;4173736;28;20094;-65
2022/05/20 04:15:56;;;;;;;5.38;0.80;;;18.40;81.20;;;;;;4171666;28;20492;-64
2022/05/20 04:17:57;;;;;;;3.45;0.93;;;19.00;80.00;;;;;;4176870;28;20079;-65
2022/05/20 04:19:58;;;;;;;3.15;0.80;;;19.70;79.10;;;;;;4171762;28;20066;-63
2022/05/20 04:22:06;;;;;;;2.83;0.90;;;20.40;77.00;;;;;;4172492;28;20083;-64
2022/05/20 04:24:08;;;;;;;3.53;0.75;;;20.80;75.20;;;;;;4169211;28;20535;-66
2022/05/20 04:26:10;;;;;;;3.75;1.05;;;21.00;74.40;;;;;;4173129;28;20041;-66
2022/05/20 04:28:12;;;;;;;2.75;0.80;;;20.90;73.30;;;;;;4176110;28;20098;-65
2022/05/20 04:30:13;;;;;;;2.22;1.00;;;20.80;73.00;;;;;;4174267;28;20029;-65
2022/05/20 04:32:14;;;;;;;2.63;0.80;;;20.60;72.50;;;;;;4172100;28;20045;-65
2022/05/20 04:34:17;;;;;;;4.03;1.00;;;20.40;72.40;;;;;;4168981;28;20041;-64
2022/05/20 04:36:18;;;;;;;2.70;1.10;;;20.20;72.40;;;;;;4172414;28;20551;-66
2022/05/20 04:38:21;;;;;;;2.95;1.10;;;20.10;72.30;;;;;;4171686;28;20135;-66
2022/05/20 04:40:23;;;;;;;4.32;1.27;;;20.30;71.90;;;;;;4172883;28;20037;-65
2022/05/20 04:47:06;;;;;;;2.20;1.27;;;21.10;69.90;;;;;;4171267;28;20041;-65
2022/05/20 04:49:09;;;;;;;5.38;1.20;;;21.30;69.00;;;;;;4173117;28;20083;-64
2022/05/20 04:51:10;;;;;;;3.78;0.90;;;21.50;68.80;;;;;;4165870;28;20029;-65
2022/05/20 04:54:49;;;;;;;2.20;1.27;;;21.50;68.20;;;;;;4173056;28;20110;-66
2022/05/20 04:55:33;;;;;;;4.20;1.20;;;21.70;67.90;;;;;;4171124;28;20040;-64
2022/05/20 04:57:46;;;;;;;1.52;1.02;;;21.90;67.30;;;;;;4172344;28;20515;-65
2022/05/20 04:59:47;;;;;;;4.25;1.20;;;22.40;66.80;;;;;;4171278;28;20086;-65
2022/05/20 05:01:51;;;;;;;6.55;1.45;;;22.70;66.00;;;;;;4184272;28;20048;-65
2022/05/20 05:03:52;;;;;;;2.80;1.00;;;22.60;65.20;;;;;;4187821;28;20107;-64
2022/05/20 05:05:53;;;;;;;3.45;1.15;;;22.50;65.10;;;;;;4189322;28;20082;-64
2022/05/20 05:07:56;;;;;;;4.22;0.90;;;22.50;65.50;;;;;;4186934;28;20025;-64
2022/05/20 05:09:59;;;;;;;5.28;1.10;;;22.80;64.90;;;;;;4189034;28;20048;-64
2022/05/20 05:12:03;;;;;;;4.72;1.10;;;;;;;;;;4186983;28;20044;-64
2022/05/20 05:14:04;;;;;;;2.97;1.13;;;;;;;;;;4189386;28;20055;-65
2022/05/20 05:16:07;;;;;;;4.10;1.08;;;;;;;;;;4188094;28;20058;-64
2022/05/20 05:18:14;;;;;;;4.03;0.93;;;;;;;;;;4188654;28;20537;-63
2022/05/20 05:20:17;;;;;;;1.83;1.10;;;;;;;;;;4188960;28;20021;-65
2022/05/20 05:22:18;;;;;;;4.05;1.08;;;;;;;;;;4187757;28;20476;-65
2022/05/20 05:24:20;;;;;;;2.63;1.00;;;;;;;;;;4188547;28;20484;-64
2022/05/20 05:26:22;;;;;;;4.68;1.10;;;23.20;64.00;;;;;;4187475;28;20074;-63
2022/05/20 05:28:24;;;;;;;3.55;1.05;;;24.60;59.40;;;;;;4189163;28;20546;-63
2022/05/20 05:30:26;;;;;;;4.80;1.23;;;24.40;59.80;;;;;;4187895;28;20021;-65
2022/05/20 05:32:27;;;;;;;2.45;0.90;;;24.30;59.50;;;;;;4189155;28;20048;-64
2022/05/20 05:34:28;;;;;;;4.20;1.00;;;24.20;60.00;;;;;;4169693;28;20083;-64
2022/05/20 05:36:29;;;;;;;7.80;1.00;;;24.20;59.70;;;;;;4192587;28;20739;-64
2022/05/20 05:38:31;;;;;;;5.07;1.13;;;;;;;;;;4190877;28;20468;-64
2022/05/20 05:40:33;;;;;;;5.68;1.00;;;;;;;;;;4192081;28;20037;-65
2022/05/20 05:42:35;;;;;;;4.90;1.10;;;;;;;;;;4190808;28;20434;-64
2022/05/20 05:44:36;;;;;;;4.35;0.98;;;;;;;;;;4192493;28;20033;-64
2022/05/20 05:46:38;;;;;;;3.75;0.90;;;;;;;;;;4190737;28;20032;-64
2022/05/20 05:48:39;;;;;;;2.08;0.93;;;;;;;;;;4191551;28;20082;-65
2022/05/20 05:50:42;;;;;;;11.18;3.22;;;;;;;;;;4190780;28;20086;-65
2022/05/20 05:52:43;;;;;;;17.05;7.53;;;24.50;59.20;;;;;;4191509;28;20097;-65
2022/05/20 05:54:44;;;;;;;12.43;4.88;;;24.20;59.30;;;;;;4191533;28;20806;-67
2022/05/20 05:56:46;;;;;;;14.77;3.38;;;23.50;60.20;;;;;;4190930;28;20033;-65
2022/05/20 05:58:47;;;;;;;13.68;3.65;;;22.40;62.10;;;;;;4192071;28;20085;-64
2022/05/20 06:00:48;;;;;;;16.73;3.10;;;21.90;64.10;;;;;;4190502;28;20119;-65
2022/05/20 06:02:49;;;;;;;22.38;3.42;;;22.10;63.80;;;;;;4191948;28;20512;-64
2022/05/20 06:04:51;;;;;;;19.58;2.97;;;21.20;64.90;;;;;;4190195;28;20656;-64
2022/05/20 06:06:53;;;;;;;21.95;4.05;;;21.10;65.70;;;;;;4191978;28;20032;-65
2022/05/20 06:08:55;;;;;;;18.73;2.08;;;21.10;66.00;;;;;;4190506;28;20554;-63
2022/05/20 06:10:57;;;;;;;11.40;1.50;;;21.00;66.00;;;;;;4192187;28;20449;-64
2022/05/20 06:12:58;;;;;;;7.07;1.42;;;20.70;65.90;;;;;;4190629;28;20044;-64
2022/05/20 06:15:07;;;;;;;9.38;2.03;;;20.40;66.40;;;;;;4192502;28;20117;-64
2022/05/20 06:17:12;;;;;;;10.65;2.10;;;20.40;67.40;;;;;;4190455;28;20036;-65
2022/05/20 06:19:14;;;;;;;7.75;2.03;;;20.50;66.80;;;;;;4190710;28;20526;-65
2022/05/20 06:21:15;;;;;;;9.13;1.88;;;20.40;66.80;;;;;;4190671;28;20036;-64
2022/05/20 06:23:16;;;;;;;13.27;2.97;;;20.70;66.90;;;;;;4191203;28;20079;-64
2022/05/20 06:25:18;;;;;;;10.27;3.33;;;20.90;66.40;;;;;;4189886;28;20161;-64
2022/05/20 06:27:19;;;;;;;20.55;4.95;;;20.60;67.30;;;;;;4190422;28;20082;-64
2022/05/20 06:29:20;;;;;;;10.13;3.00;;;19.90;68.60;;;;;;4191237;28;20037;-64
2022/05/20 06:31:22;;;;;;;12.23;3.05;;;19.70;69.50;;;;;;4190259;28;20044;-65
2022/05/20 06:33:24;;;;;;;9.88;3.13;;;19.00;70.60;;;;;;4189928;28;20032;-64
2022/05/20 06:40:19;;;;;;;12.05;3.28;;;18.40;72.70;;;;;;4190507;28;20098;-64
2022/05/20 06:42:20;;;;;;;10.35;2.92;;;18.40;72.80;;;;;;4190752;28;20561;-64
2022/05/20 06:44:22;;;;;;;9.05;2.70;;;18.60;72.40;;;;;;4190553;28;20793;-65
2022/05/20 06:46:24;;;;;;;4.28;2.20;;;18.60;72.50;;;;;;4190302;28;20085;-63
2022/05/20 06:48:46;;;;;;;4.80;2.10;;;18.70;72.30;;;;;;4189050;28;20052;-63
2022/05/20 06:50:47;;;;;;;14.48;2.53;;;18.60;73.10;;;;;;4190640;28;20041;-63
2022/05/20 06:52:48;;;;;;;7.53;2.33;;;18.90;72.70;;;;;;4189554;28;20090;-64
2022/05/20 06:54:49;;;;;;;9.05;2.22;;;19.30;72.20;;;;;;4191369;28;20052;-64
2022/05/20 06:56:51;;;;;;;10.93;2.50;;;19.20;72.10;;;;;;4188937;28;20070;-64
2022/05/20 06:58:52;;;;;;;8.63;2.35;;;18.70;73.00;;;;;;4191031;28;20020;-65
2022/05/20 07:00:53;;;;;;;14.27;2.90;;;18.80;73.40;;;;;;4189903;28;20150;-64
2022/05/20 07:02:56;;;;;;;4.15;2.03;;;18.90;73.40;;;;;;4190909;28;20032;-64
2022/05/20 07:04:57;;;;;;;7.38;2.40;;;19.10;73.30;;;;;;4189335;28;20036;-65
2022/05/20 07:07:01;;;;;;;4.95;1.95;;;19.10;73.40;;;;;;4190845;28;20078;-64
2022/05/20 07:09:05;;;;;;;10.50;2.60;;;19.00;73.30;;;;;;4189251;28;20090;-64
2022/05/20 07:11:06;;;;;;;7.07;2.50;;;19.00;73.40;;;;;;4191091;28;20443;-63
2022/05/20 07:13:08;;;;;;;5.38;2.13;;;19.30;73.60;;;;;;4188873;28;20521;-64
2022/05/20 07:15:09;;;;;;;10.73;2.65;;;19.40;73.50;;;;;;4190856;28;20728;-65
2022/05/20 07:17:18;;;;;;;4.97;1.83;;;19.70;73.60;;;;;;4189369;28;20033;-65
2022/05/20 07:19:20;;;;;;;7.13;2.22;;;19.70;73.60;;;;;;4190572;28;20024;-65
2022/05/20 07:21:21;;;;;;;5.53;1.67;;;19.60;73.90;;;;;;4189954;28;20032;-65
2022/05/20 07:23:25;;;;;;;6.93;2.22;;;19.50;74.00;;;;;;4189223;28;20754;-65
2022/05/20 07:25:26;;;;;;;7.57;1.92;;;19.40;74.20;;;;;;4189846;28;20078;-64
2022/05/20 07:27:29;;;;;;;4.43;2.17;;;19.20;74.40;;;;;;4189424;28;20546;-63
2022/05/20 07:29:30;;;;;;;3.67;1.63;;;19.00;74.70;;;;;;4190879;28;20567;-65
2022/05/20 07:31:31;;;;;;;4.57;1.70;;;19.20;74.80;;;;;;4189011;28;20024;-65
2022/05/20 07:33:33;;;;;;;4.85;1.40;;;19.20;74.60;;;;;;4190301;28;20070;-64
2022/05/20 07:35:36;;;;;;;6.57;2.05;;;19.20;74.50;;;;;;4189040;28;20086;-64
2022/05/20 07:37:37;;;;;;;6.70;1.50;;;19.30;74.40;;;;;;4190342;28;20044;-64
2022/05/20 07:39:38;;;;;;;2.38;1.40;;;19.40;74.50;;;;;;4188837;28;20042;-65
2022/05/20 07:41:39;;;;;;;2.90;1.67;;;19.50;74.10;;;;;;4190313;28;20102;-65
2022/05/20 07:43:41;;;;;;;7.82;2.30;;;19.40;74.10;;;;;;4189007;28;20394;-65
2022/05/20 07:45:42;;;;;;;6.05;1.60;;;19.50;74.00;;;;;;4190811;28;20048;-65
2022/05/20 07:47:45;;;;;;;2.97;2.15;;;19.40;73.80;;;;;;4188804;28;20090;-65
2022/05/20 07:49:47;;;;;;;3.92;1.58;;;19.50;73.70;;;;;;4190005;28;20427;-65
2022/05/20 07:51:50;;;;;;;2.83;1.40;;;19.50;73.50;;;;;;4188838;28;20470;-65
2022/05/20 07:53:59;;;;;;;3.33;1.58;;;19.50;73.70;;;;;;4189322;28;20092;-64
2022/05/20 07:56:13;;;;;;;2.65;1.80;;;19.50;73.60;;;;;;4189067;28;20098;-64
2022/05/20 07:58:18;;;;;;;8.63;1.67;;;19.70;73.50;;;;;;4188553;28;20040;-63
2022/05/20 08:00:21;;;;;;;4.45;1.10;;;19.80;73.20;;;;;;4188786;28;20090;-63
2022/05/20 08:02:26;;;;;;;9.73;2.17;;;19.80;73.10;;;;;;4189124;28;20118;-64
2022/05/20 08:07:00;;;;;;;5.63;1.58;;;20.00;72.60;;;;;;4189497;28;20036;-65
2022/05/20 08:09:01;;;;;;;2.50;1.17;;;20.20;72.20;;;;;;4189349;28;20547;-65
2022/05/20 08:11:03;;;;;;;3.17;1.63;;;20.30;71.90;;;;;;4189358;28;20048;-65
2022/05/20 08:13:04;;;;;;;6.82;1.63;;;20.20;71.90;;;;;;4189440;28;20466;-64
2022/05/20 08:15:05;;;;;;;4.25;1.40;;;20.20;71.90;;;;;;4187759;28;20032;-64
2022/05/20 08:17:07;;;;;;;3.15;1.25;;;20.10;72.00;;;;;;4189678;28;20032;-64
2022/05/20 08:19:09;;;;;;;4.35;1.20;;;20.20;72.10;;;;;;4188627;28;20024;-65
2022/05/20 08:21:10;;;;;;;3.17;0.95;;;20.20;71.90;;;;;;4189921;28;20017;-64
2022/05/20 08:23:11;;;;;;;4.20;1.60;;;20.30;71.20;;;;;;4188097;28;20071;-64
2022/05/20 08:25:12;;;;;;;3.35;1.10;;;20.50;71.10;;;;;;4189630;28;20032;-64
2022/05/20 08:27:13;;;;;;;5.32;1.55;;;20.60;70.40;;;;;;4187879;28;20093;-64
2022/05/20 08:29:14;;;;;;;3.72;0.90;;;20.80;69.80;;;;;;4189733;28;20040;-65
2022/05/20 08:31:16;;;;;;;5.95;0.85;;;21.00;69.00;;;;;;4187723;28;20864;-64
2022/05/20 08:33:17;;;;;;;1.70;1.15;;;21.00;67.60;;;;;;4189270;28;20090;-64
2022/05/20 08:35:20;;;;;;;2.95;1.75;;;20.90;67.50;;;;;;4187420;28;20094;-65
2022/05/20 08:37:22;;;;;;;1.10;0.98;;;21.00;67.90;;;;;;4188830;28;20563;-64
2022/05/20 08:39:23;;;;;;;4.82;1.00;;;21.00;67.70;;;;;;4188566;28;20024;-65
2022/05/20 08:41:29;;;;;;;5.43;0.88;;;21.00;67.20;;;;;;4188412;28;20166;-64
2022/05/20 08:43:33;;;;;;;2.30;1.40;;;21.00;68.10;;;;;;4187926;28;20397;-65
2022/05/20 08:45:34;;;;;;;2.08;1.20;;;20.90;68.50;;;;;;4188751;28;20040;-65
2022/05/20 08:47:45;;;;;;;4.35;1.42;;;21.10;69.00;;;;;;4189018;28;20028;-64
2022/05/20 08:49:47;;;;;;;3.97;1.15;;;21.20;66.90;;;;;;4188230;28;20036;-64
2022/05/20 08:51:52;;;;;;;2.95;0.80;;;21.10;66.40;;;;;;4189272;28;20044;-64
2022/05/20 08:53:53;;;;;;;3.17;1.38;;;21.20;66.60;;;;;;4187651;28;20024;-65
2022/05/20 08:55:59;;;;;;;11.30;1.20;;;21.20;65.60;;;;;;4189647;28;20040;-64
2022/05/20 08:58:03;;;;;;;2.60;1.15;;;21.30;64.90;;;;;;4187456;28;20094;-64
2022/05/20 09:00:10;;;;;;;2.38;0.68;;;21.20;64.30;;;;;;4189395;28;20383;-64
2022/05/20 09:02:12;;;;;;;2.92;0.82;;;21.20;61.50;;;;;;4187301;28;20732;-65
2022/05/20 09:04:16;;;;;;;3.55;1.35;;;21.30;62.80;;;;;;4189191;28;20128;-64
2022/05/20 09:06:17;;;;;;;1.42;0.73;;;21.50;63.40;;;;;;4187815;28;20016;-64
2022/05/20 09:08:25;;;;;;;1.65;0.55;;;21.50;63.10;;;;;;4189014;28;20449;-65
2022/05/20 09:10:48;;;;;;;0.80;0.75;;;21.50;61.50;;;;;;4186496;28;20036;-64
2022/05/20 09:13:04;;;;;;;1.38;0.60;;;21.60;62.70;;;;;;4188963;28;20548;-64
2022/05/20 09:17:43;;;;;;;6.55;1.48;;;21.60;60.80;;;;;;4189456;28;20107;-63
2022/05/20 09:19:56;;;;;;;2.20;0.98;;;21.60;60.90;;;;;;4187695;28;20063;-64
2022/05/20 09:22:05;;;;;;;4.47;1.02;;;21.60;61.00;;;;;;4189118;28;20383;-64
2022/05/20 09:24:15;;;;;;;5.65;0.80;;;21.70;61.30;;;;;;4187938;28;20040;-64
2022/05/20 09:26:23;;;;;;;3.42;0.93;;;21.80;60.30;;;;;;4188921;28;20745;-65
2022/05/20 09:28:47;;;;;;;9.00;1.05;;;21.90;60.40;;;;;;4187415;28;20435;-64
2022/05/20 09:30:52;;;;;;;5.88;1.20;;;21.90;60.50;;;;;;4188691;28;20036;-65
2022/05/20 09:32:53;;;;;;;4.53;2.05;;;22.10;60.50;;;;;;4186971;28;20102;-65
2022/05/20 09:35:16;;;;;;;4.90;1.50;;;22.10;60.00;;;;;;4188986;28;20101;-65
2022/05/20 09:37:20;;;;;;;0.70;0.63;;;22.20;57.40;;;;;;4187210;28;20778;-64
2022/05/20 09:39:31;;;;;;;6.30;1.65;;;22.30;59.20;;;;;;4188931;28;20028;-63
2022/05/20 09:41:33;;;;;;;2.53;1.05;;;22.40;58.20;;;;;;4185624;28;20044;-63
2022/05/20 09:43:40;;;;;;;7.57;0.70;;;22.50;58.60;;;;;;4189178;28;20475;-64
2022/05/20 09:45:49;;;;;;;1.13;0.82;;;22.60;58.20;;;;;;4188142;28;20501;-64
2022/05/20 09:47:57;;;;;;;5.30;0.98;;;22.70;57.80;;;;;;4188853;28;20053;-65
2022/05/20 09:50:14;;;;;;;2.72;0.57;;;22.80;58.00;;;;;;4187375;28;20558;-64
2022/05/20 09:52:22;;;;;;;3.25;0.90;;;22.70;57.00;;;;;;4189166;28;20079;-64
2022/05/20 09:54:28;;;;;;;4.72;1.42;;;22.60;57.50;;;;;;4186968;28;20568;-64
2022/05/20 09:56:33;;;;;;;4.60;0.57;;;22.60;58.00;;;;;;4189410;28;20423;-64
2022/05/20 09:58:34;;;;;;;2.67;0.75;;;22.60;58.60;;;;;;4187524;28;20055;-64
2022/05/20 10:00:36;;;;;;;1.80;0.63;;;22.80;59.00;;;;;;4188194;28;20090;-64
2022/05/20 10:02:43;;;;;;;3.63;1.15;;;22.90;58.40;;;;;;4187095;28;20112;-64
2022/05/20 10:04:51;;;;;;;3.70;0.93;;;22.80;58.30;;;;;;4188808;28;20041;-64
2022/05/20 10:06:57;;;;;;;4.80;1.05;;;22.90;58.60;;;;;;4187469;28;20045;-63
2022/05/20 10:09:26;;;;;;;3.03;0.90;;;23.10;59.20;;;;;;4188732;28;20040;-65
2022/05/20 10:12:02;;;;;;;5.75;1.10;;;23.30;58.10;;;;;;4187204;28;20447;-64
2022/05/20 10:14:06;;;;;;;1.48;0.63;;;23.20;57.70;;;;;;4185242;28;20106;-66
2022/05/20 10:16:18;;;;;;;4.72;2.22;;;23.10;58.60;;;;;;4187828;28;20029;-64
2022/05/20 10:18:37;;;;;;;4.00;0.95;;;22.80;58.70;;;;;;4188780;28;20040;-64
2022/05/20 10:20:57;;;;;;;6.68;0.80;;;23.00;59.80;;;;;;4187282;28;20044;-65
2022/05/20 10:23:17;;;;;;;0.68;0.50;;;;;;;;;;4189549;28;20040;-64
2022/05/20 10:25:21;;;;;;;1.25;0.60;;;;;;;;;;4190716;28;20037;-64
2022/05/20 10:27:36;;;;;;;3.60;0.75;;;23.30;59.30;;;;;;4190935;28;20082;-63
2022/05/20 10:34:26;;;;;;;5.28;0.80;;;23.50;57.50;;;;;;4191511;28;20032;-64
2022/05/20 10:36:27;;;;;;;1.08;0.55;;;;;;;;;;4189778;28;20036;-64
2022/05/20 10:38:49;;;;;;;7.50;0.88;;;;;;;;;;4190728;28;20121;-65
2022/05/20 10:40:59;;;;;;;1.00;0.60;;;23.60;58.70;;;;;;4189012;28;20028;-64
2022/05/20 10:43:22;;;;;;;1.88;0.63;;;23.60;58.60;;;;;;4191283;28;20074;-63
2022/05/20 10:50:28;;;;;;;2.58;0.73;;;23.50;60.00;;;;;;4189966;28;21353;-65
2022/05/20 10:52:29;;;;;;;;;;;23.60;60.30;;;;;;4192116;28;20048;-64
2022/05/20 10:54:43;;;;;;;2.05;0.77;;;23.60;60.90;;;;;;4189600;28;19908;-64
2022/05/20 10:57:22;;;;;;;2.28;1.00;;;23.60;59.70;;;;;;4191321;28;20025;-64
2022/05/20 10:59:45;;;;;;;2.20;0.65;;;23.60;60.10;;;;;;4188086;28;20138;-64
2022/05/20 11:01:52;;;;;;;1.85;0.93;;;23.40;60.00;;;;;;4190514;28;20178;-64
2022/05/20 11:04:24;;;;;;;5.10;0.80;;;23.20;60.30;;;;;;4189871;28;20028;-64
2022/05/20 11:06:59;;;;;;;3.80;0.80;;;23.10;59.80;;;;;;4190158;28;20028;-64
2022/05/20 11:09:02;;;;;;;9.95;0.98;;;23.20;60.10;;;;;;4188408;28;20044;-65
2022/05/20 11:11:09;;;;;;;3.85;0.98;;;23.30;60.40;;;;;;4189083;28;20102;-64
2022/05/20 11:13:25;;;;;;;2.75;0.80;;;23.40;60.50;;;;;;4189905;28;20048;-64
2022/05/20 11:15:48;;;;;;;4.40;0.90;;;23.30;60.00;;;;;;4189534;28;20102;-64
2022/05/20 11:18:11;;;;;;;2.67;0.80;;;23.30;59.30;;;;;;4191247;28;20045;-65
2022/05/20 11:20:34;;;;;;;1.95;0.77;;;23.20;59.70;;;;;;4188731;28;20078;-65
2022/05/20 11:23:16;;;;;;;1.33;0.57;;;23.30;59.30;;;;;;4190608;28;20074;-64
2022/05/20 11:25:31;;;;;;;4.38;0.93;;;23.40;59.90;;;;;;4153915;28;20033;-64
2022/05/20 11:27:53;;;;;;;5.78;0.80;;;23.50;60.00;;;;;;4178517;28;20044;-64
2022/05/20 11:30:11;;;;;;;3.10;0.90;;;;;;;;;;4189527;28;20134;-64